sensor_id;sensor_type;location;lat;lon;timestamp;P1;durP1;ratioP1;P2;durP2;ratioP2
67715;SDS011;54508;43.238;25.306;2022-09-29T00:00:07;13.00;;;4.30;;
67715;SDS011;54508;43.238;25.306;2022-09-29T00:02:33;11.50;;;4.28;;
67715;SDS011;54508;43.238;25.306;2022-09-29T00:04:58;10.47;;;4.50;;
67715;SDS011;54508;43.238;25.306;2022-09-29T00:07:24;8.57;;;4.23;;
67715;SDS011;54508;43.238;25.306;2022-09-29T00:09:49;10.97;;;4.10;;
67715;SDS011;54508;43.238;25.306;2022-09-29T00:12:15;11.30;;;3.97;;
67715;SDS011;54508;43.238;25.306;2022-09-29T00:14:40;11.60;;;4.20;;
67715;SDS011;54508;43.238;25.306;2022-09-29T00:17:06;12.60;;;4.67;;
67715;SDS011;54508;43.238;25.306;2022-09-29T00:19:31;11.97;;;4.10;;
67715;SDS011;54508;43.238;25.306;2022-09-29T00:21:57;9.07;;;4.10;;
67715;SDS011;54508;43.238;25.306;2022-09-29T00:24:23;12.65;;;4.43;;
67715;SDS011;54508;43.238;25.306;2022-09-29T00:26:49;9.07;;;3.63;;
67715;SDS011;54508;43.238;25.306;2022-09-29T00:29:14;9.75;;;3.85;;
67715;SDS011;54508;43.238;25.306;2022-09-29T00:31:40;11.30;;;4.10;;
67715;SDS011;54508;43.238;25.306;2022-09-29T00:34:05;9.77;;;4.33;;
67715;SDS011;54508;43.238;25.306;2022-09-29T00:36:31;8.90;;;3.83;;
67715;SDS011;54508;43.238;25.306;2022-09-29T00:38:56;9.50;;;4.67;;
67715;SDS011;54508;43.238;25.306;2022-09-29T00:41:30;9.88;;;4.18;;
67715;SDS011;54508;43.238;25.306;2022-09-29T00:46:28;11.90;;;4.97;;
67715;SDS011;54508;43.238;25.306;2022-09-29T00:52:01;10.47;;;4.00;;
67715;SDS011;54508;43.238;25.306;2022-09-29T00:54:31;8.55;;;4.82;;
67715;SDS011;54508;43.238;25.306;2022-09-29T00:56:59;14.50;;;4.90;;
67715;SDS011;54508;43.238;25.306;2022-09-29T00:59:28;11.50;;;4.55;;
67715;SDS011;54508;43.238;25.306;2022-09-29T01:01:59;10.65;;;4.50;;
67715;SDS011;54508;43.238;25.306;2022-09-29T01:04:24;11.60;;;4.90;;
67715;SDS011;54508;43.238;25.306;2022-09-29T01:06:52;10.13;;;4.30;;
67715;SDS011;54508;43.238;25.306;2022-09-29T01:09:20;10.93;;;4.78;;
67715;SDS011;54508;43.238;25.306;2022-09-29T01:11:49;11.57;;;4.90;;
67715;SDS011;54508;43.238;25.306;2022-09-29T01:14:16;10.98;;;4.50;;
67715;SDS011;54508;43.238;25.306;2022-09-29T01:16:43;8.68;;;4.50;;
67715;SDS011;54508;43.238;25.306;2022-09-29T01:19:15;11.15;;;4.68;;
67715;SDS011;54508;43.238;25.306;2022-09-29T01:22:00;13.68;;;5.10;;
67715;SDS011;54508;43.238;25.306;2022-09-29T01:35:22;11.50;;;4.72;;
67715;SDS011;54508;43.238;25.306;2022-09-29T01:37:59;12.80;;;4.32;;
67715;SDS011;54508;43.238;25.306;2022-09-29T01:43:19;8.23;;;4.15;;
67715;SDS011;54508;43.238;25.306;2022-09-29T01:45:57;10.10;;;4.43;;
67715;SDS011;54508;43.238;25.306;2022-09-29T01:48:28;12.07;;;4.88;;
67715;SDS011;54508;43.238;25.306;2022-09-29T01:50:57;9.10;;;4.60;;
67715;SDS011;54508;43.238;25.306;2022-09-29T01:53:28;13.40;;;4.38;;
67715;SDS011;54508;43.238;25.306;2022-09-29T01:56:02;11.93;;;5.45;;
67715;SDS011;54508;43.238;25.306;2022-09-29T01:58:40;17.83;;;4.88;;
67715;SDS011;54508;43.238;25.306;2022-09-29T02:01:12;15.50;;;5.28;;
67715;SDS011;54508;43.238;25.306;2022-09-29T02:03:55;10.55;;;5.05;;
67715;SDS011;54508;43.238;25.306;2022-09-29T02:06:24;12.07;;;5.25;;
67715;SDS011;54508;43.238;25.306;2022-09-29T02:08:55;10.83;;;4.83;;
67715;SDS011;54508;43.238;25.306;2022-09-29T02:11:21;15.13;;;4.57;;
67715;SDS011;54508;43.238;25.306;2022-09-29T02:16:31;11.23;;;4.55;;
67715;SDS011;54508;43.238;25.306;2022-09-29T02:19:02;12.23;;;4.55;;
67715;SDS011;54508;43.238;25.306;2022-09-29T02:21:32;12.98;;;4.93;;
67715;SDS011;54508;43.238;25.306;2022-09-29T02:23:58;9.57;;;4.85;;
67715;SDS011;54508;43.238;25.306;2022-09-29T02:26:25;13.67;;;5.63;;
67715;SDS011;54508;43.238;25.306;2022-09-29T02:28:53;12.07;;;5.18;;
67715;SDS011;54508;43.238;25.306;2022-09-29T02:31:21;13.15;;;4.78;;
67715;SDS011;54508;43.238;25.306;2022-09-29T02:33:47;14.18;;;4.70;;
67715;SDS011;54508;43.238;25.306;2022-09-29T02:44:31;12.45;;;4.55;;
67715;SDS011;54508;43.238;25.306;2022-09-29T02:50:30;11.43;;;5.22;;
67715;SDS011;54508;43.238;25.306;2022-09-29T02:53:07;14.63;;;5.53;;
67715;SDS011;54508;43.238;25.306;2022-09-29T02:55:43;10.77;;;4.87;;
67715;SDS011;54508;43.238;25.306;2022-09-29T02:58:17;17.17;;;5.68;;
67715;SDS011;54508;43.238;25.306;2022-09-29T03:00:44;12.73;;;5.35;;
67715;SDS011;54508;43.238;25.306;2022-09-29T03:03:11;11.98;;;5.35;;
67715;SDS011;54508;43.238;25.306;2022-09-29T03:05:37;15.33;;;5.80;;
67715;SDS011;54508;43.238;25.306;2022-09-29T03:08:02;16.88;;;5.20;;
67715;SDS011;54508;43.238;25.306;2022-09-29T03:10:28;14.13;;;5.67;;
67715;SDS011;54508;43.238;25.306;2022-09-29T03:12:53;17.83;;;5.77;;
67715;SDS011;54508;43.238;25.306;2022-09-29T03:15:19;10.13;;;4.93;;
67715;SDS011;54508;43.238;25.306;2022-09-29T03:17:45;9.63;;;4.97;;
67715;SDS011;54508;43.238;25.306;2022-09-29T03:20:10;10.57;;;4.85;;
67715;SDS011;54508;43.238;25.306;2022-09-29T03:22:36;9.97;;;4.93;;
67715;SDS011;54508;43.238;25.306;2022-09-29T03:25:05;10.45;;;4.80;;
67715;SDS011;54508;43.238;25.306;2022-09-29T03:27:31;9.07;;;4.77;;
67715;SDS011;54508;43.238;25.306;2022-09-29T03:29:57;9.35;;;4.72;;
67715;SDS011;54508;43.238;25.306;2022-09-29T03:32:22;7.77;;;4.20;;
67715;SDS011;54508;43.238;25.306;2022-09-29T03:34:48;12.98;;;5.28;;
67715;SDS011;54508;43.238;25.306;2022-09-29T03:37:13;10.13;;;4.97;;
67715;SDS011;54508;43.238;25.306;2022-09-29T03:39:39;12.33;;;5.00;;
67715;SDS011;54508;43.238;25.306;2022-09-29T03:42:04;14.98;;;4.95;;
67715;SDS011;54508;43.238;25.306;2022-09-29T03:44:30;11.23;;;4.53;;
67715;SDS011;54508;43.238;25.306;2022-09-29T03:46:55;11.70;;;4.87;;
67715;SDS011;54508;43.238;25.306;2022-09-29T03:49:20;11.57;;;5.10;;
67715;SDS011;54508;43.238;25.306;2022-09-29T03:51:46;11.90;;;5.60;;
67715;SDS011;54508;43.238;25.306;2022-09-29T03:54:12;14.18;;;4.97;;
67715;SDS011;54508;43.238;25.306;2022-09-29T03:56:37;12.77;;;4.60;;
67715;SDS011;54508;43.238;25.306;2022-09-29T03:59:03;10.20;;;4.55;;
67715;SDS011;54508;43.238;25.306;2022-09-29T04:01:32;11.73;;;4.77;;
67715;SDS011;54508;43.238;25.306;2022-09-29T04:03:58;10.50;;;4.55;;
67715;SDS011;54508;43.238;25.306;2022-09-29T04:06:23;12.47;;;5.10;;
67715;SDS011;54508;43.238;25.306;2022-09-29T04:08:49;11.60;;;4.77;;
67715;SDS011;54508;43.238;25.306;2022-09-29T04:11:14;13.98;;;5.25;;
67715;SDS011;54508;43.238;25.306;2022-09-29T04:13:40;12.33;;;5.03;;
67715;SDS011;54508;43.238;25.306;2022-09-29T04:16:05;13.57;;;4.67;;
67715;SDS011;54508;43.238;25.306;2022-09-29T04:18:31;12.90;;;5.30;;
67715;SDS011;54508;43.238;25.306;2022-09-29T04:21:03;10.88;;;4.72;;
67715;SDS011;54508;43.238;25.306;2022-09-29T04:23:32;14.68;;;4.40;;
67715;SDS011;54508;43.238;25.306;2022-09-29T04:25:58;12.20;;;5.17;;
67715;SDS011;54508;43.238;25.306;2022-09-29T04:28:26;12.75;;;3.85;;
67715;SDS011;54508;43.238;25.306;2022-09-29T04:30:51;13.10;;;5.25;;
67715;SDS011;54508;43.238;25.306;2022-09-29T04:33:17;10.40;;;4.27;;
67715;SDS011;54508;43.238;25.306;2022-09-29T04:35:42;12.77;;;4.43;;
67715;SDS011;54508;43.238;25.306;2022-09-29T04:38:08;11.98;;;4.53;;
67715;SDS011;54508;43.238;25.306;2022-09-29T04:40:34;8.00;;;3.90;;
67715;SDS011;54508;43.238;25.306;2022-09-29T04:43:00;12.35;;;4.80;;
67715;SDS011;54508;43.238;25.306;2022-09-29T04:45:25;11.30;;;4.00;;
67715;SDS011;54508;43.238;25.306;2022-09-29T04:47:51;14.15;;;4.72;;
67715;SDS011;54508;43.238;25.306;2022-09-29T04:50:17;14.13;;;5.17;;
67715;SDS011;54508;43.238;25.306;2022-09-29T04:52:42;11.67;;;4.87;;
67715;SDS011;54508;43.238;25.306;2022-09-29T04:55:08;18.98;;;4.63;;
67715;SDS011;54508;43.238;25.306;2022-09-29T04:57:35;12.88;;;4.90;;
67715;SDS011;54508;43.238;25.306;2022-09-29T05:00:02;15.07;;;4.78;;
67715;SDS011;54508;43.238;25.306;2022-09-29T05:02:29;10.50;;;4.57;;
67715;SDS011;54508;43.238;25.306;2022-09-29T05:04:54;10.88;;;4.68;;
67715;SDS011;54508;43.238;25.306;2022-09-29T05:07:19;14.40;;;4.93;;
67715;SDS011;54508;43.238;25.306;2022-09-29T05:09:45;10.30;;;4.30;;
67715;SDS011;54508;43.238;25.306;2022-09-29T05:12:11;14.63;;;4.57;;
67715;SDS011;54508;43.238;25.306;2022-09-29T05:14:36;13.48;;;4.20;;
67715;SDS011;54508;43.238;25.306;2022-09-29T05:17:02;12.70;;;4.53;;
67715;SDS011;54508;43.238;25.306;2022-09-29T05:19:27;9.32;;;4.10;;
67715;SDS011;54508;43.238;25.306;2022-09-29T05:21:54;11.38;;;3.97;;
67715;SDS011;54508;43.238;25.306;2022-09-29T05:24:19;18.77;;;3.25;;
67715;SDS011;54508;43.238;25.306;2022-09-29T05:26:45;13.50;;;2.77;;
67715;SDS011;54508;43.238;25.306;2022-09-29T05:29:10;6.67;;;2.80;;
67715;SDS011;54508;43.238;25.306;2022-09-29T05:31:36;15.00;;;2.88;;
67715;SDS011;54508;43.238;25.306;2022-09-29T05:34:01;22.13;;;4.40;;
67715;SDS011;54508;43.238;25.306;2022-09-29T05:36:27;17.83;;;3.73;;
67715;SDS011;54508;43.238;25.306;2022-09-29T05:38:52;7.63;;;3.40;;
67715;SDS011;54508;43.238;25.306;2022-09-29T05:41:18;13.13;;;7.35;;
67715;SDS011;54508;43.238;25.306;2022-09-29T05:43:47;8.52;;;4.18;;
67715;SDS011;54508;43.238;25.306;2022-09-29T05:46:13;17.20;;;6.57;;
67715;SDS011;54508;43.238;25.306;2022-09-29T05:48:40;19.85;;;4.15;;
67715;SDS011;54508;43.238;25.306;2022-09-29T05:51:14;7.55;;;2.85;;
67715;SDS011;54508;43.238;25.306;2022-09-29T05:53:41;18.25;;;4.20;;
67715;SDS011;54508;43.238;25.306;2022-09-29T05:56:11;11.50;;;3.77;;
67715;SDS011;54508;43.238;25.306;2022-09-29T05:58:38;8.27;;;2.70;;
67715;SDS011;54508;43.238;25.306;2022-09-29T06:01:08;12.30;;;2.67;;
67715;SDS011;54508;43.238;25.306;2022-09-29T06:03:38;9.70;;;2.50;;
67715;SDS011;54508;43.238;25.306;2022-09-29T06:06:08;6.50;;;3.20;;
67715;SDS011;54508;43.238;25.306;2022-09-29T06:08:35;11.07;;;6.40;;
67715;SDS011;54508;43.238;25.306;2022-09-29T06:13:30;10.88;;;4.10;;
67715;SDS011;54508;43.238;25.306;2022-09-29T06:15:57;11.87;;;6.17;;
67715;SDS011;54508;43.238;25.306;2022-09-29T06:18:23;7.93;;;3.67;;
67715;SDS011;54508;43.238;25.306;2022-09-29T06:20:49;5.23;;;2.93;;
67715;SDS011;54508;43.238;25.306;2022-09-29T06:23:14;5.68;;;2.95;;
67715;SDS011;54508;43.238;25.306;2022-09-29T06:25:40;4.10;;;2.20;;
67715;SDS011;54508;43.238;25.306;2022-09-29T06:28:05;6.60;;;3.37;;
67715;SDS011;54508;43.238;25.306;2022-09-29T06:30:30;5.87;;;2.53;;
67715;SDS011;54508;43.238;25.306;2022-09-29T06:32:56;11.15;;;2.90;;
67715;SDS011;54508;43.238;25.306;2022-09-29T06:35:21;6.50;;;2.67;;
67715;SDS011;54508;43.238;25.306;2022-09-29T06:38:05;4.68;;;2.60;;
67715;SDS011;54508;43.238;25.306;2022-09-29T06:40:31;9.45;;;3.03;;
67715;SDS011;54508;43.238;25.306;2022-09-29T06:42:57;6.27;;;2.83;;
67715;SDS011;54508;43.238;25.306;2022-09-29T06:45:22;5.32;;;2.60;;
67715;SDS011;54508;43.238;25.306;2022-09-29T06:47:48;5.07;;;3.00;;
67715;SDS011;54508;43.238;25.306;2022-09-29T06:50:13;6.57;;;2.70;;
67715;SDS011;54508;43.238;25.306;2022-09-29T06:52:38;2.80;;;2.20;;
67715;SDS011;54508;43.238;25.306;2022-09-29T06:55:04;5.82;;;2.75;;
67715;SDS011;54508;43.238;25.306;2022-09-29T06:57:30;4.80;;;2.33;;
67715;SDS011;54508;43.238;25.306;2022-09-29T06:59:55;11.23;;;2.63;;
67715;SDS011;54508;43.238;25.306;2022-09-29T07:02:21;7.33;;;2.70;;
67715;SDS011;54508;43.238;25.306;2022-09-29T07:04:46;7.83;;;2.70;;
67715;SDS011;54508;43.238;25.306;2022-09-29T07:07:13;6.25;;;2.40;;
67715;SDS011;54508;43.238;25.306;2022-09-29T07:09:39;13.40;;;2.85;;
67715;SDS011;54508;43.238;25.306;2022-09-29T07:12:06;10.25;;;2.30;;
67715;SDS011;54508;43.238;25.306;2022-09-29T07:14:32;10.80;;;6.43;;
67715;SDS011;54508;43.238;25.306;2022-09-29T07:16:57;7.47;;;3.83;;
67715;SDS011;54508;43.238;25.306;2022-09-29T07:19:23;21.77;;;2.88;;
67715;SDS011;54508;43.238;25.306;2022-09-29T07:21:49;3.87;;;2.30;;
67715;SDS011;54508;43.238;25.306;2022-09-29T07:24:16;6.60;;;2.70;;
67715;SDS011;54508;43.238;25.306;2022-09-29T07:26:42;14.15;;;2.47;;
67715;SDS011;54508;43.238;25.306;2022-09-29T07:29:07;4.57;;;2.42;;
67715;SDS011;54508;43.238;25.306;2022-09-29T07:31:33;4.93;;;3.50;;
67715;SDS011;54508;43.238;25.306;2022-09-29T07:33:59;8.37;;;4.23;;
67715;SDS011;54508;43.238;25.306;2022-09-29T07:36:24;6.85;;;3.90;;
67715;SDS011;54508;43.238;25.306;2022-09-29T07:38:50;5.57;;;2.57;;
67715;SDS011;54508;43.238;25.306;2022-09-29T07:41:16;7.40;;;2.30;;
67715;SDS011;54508;43.238;25.306;2022-09-29T07:43:43;6.70;;;3.00;;
67715;SDS011;54508;43.238;25.306;2022-09-29T07:46:09;7.90;;;2.90;;
67715;SDS011;54508;43.238;25.306;2022-09-29T07:48:35;4.43;;;2.17;;
67715;SDS011;54508;43.238;25.306;2022-09-29T07:53:34;19.60;;;9.25;;
67715;SDS011;54508;43.238;25.306;2022-09-29T07:56:04;14.30;;;3.40;;
67715;SDS011;54508;43.238;25.306;2022-09-29T07:58:32;15.25;;;3.30;;
67715;SDS011;54508;43.238;25.306;2022-09-29T08:00:58;5.78;;;3.33;;
67715;SDS011;54508;43.238;25.306;2022-09-29T08:03:24;6.88;;;3.60;;
67715;SDS011;54508;43.238;25.306;2022-09-29T08:05:50;11.00;;;3.10;;
67715;SDS011;54508;43.238;25.306;2022-09-29T08:08:17;10.73;;;4.13;;
67715;SDS011;54508;43.238;25.306;2022-09-29T08:10:42;5.50;;;3.22;;
67715;SDS011;54508;43.238;25.306;2022-09-29T08:13:08;10.10;;;3.40;;
67715;SDS011;54508;43.238;25.306;2022-09-29T08:15:33;5.15;;;2.58;;
67715;SDS011;54508;43.238;25.306;2022-09-29T08:17:59;7.47;;;2.70;;
67715;SDS011;54508;43.238;25.306;2022-09-29T08:20:24;5.33;;;2.80;;
67715;SDS011;54508;43.238;25.306;2022-09-29T08:22:51;6.75;;;2.55;;
67715;SDS011;54508;43.238;25.306;2022-09-29T08:25:17;5.78;;;2.70;;
67715;SDS011;54508;43.238;25.306;2022-09-29T08:27:43;3.50;;;2.42;;
67715;SDS011;54508;43.238;25.306;2022-09-29T08:30:09;7.20;;;2.70;;
67715;SDS011;54508;43.238;25.306;2022-09-29T08:32:35;4.13;;;2.93;;
67715;SDS011;54508;43.238;25.306;2022-09-29T08:35:02;4.28;;;2.60;;
67715;SDS011;54508;43.238;25.306;2022-09-29T08:37:28;7.53;;;3.17;;
67715;SDS011;54508;43.238;25.306;2022-09-29T08:39:53;8.90;;;4.60;;
67715;SDS011;54508;43.238;25.306;2022-09-29T08:42:37;9.38;;;4.40;;
67715;SDS011;54508;43.238;25.306;2022-09-29T08:45:52;5.47;;;3.97;;
67715;SDS011;54508;43.238;25.306;2022-09-29T08:48:17;13.35;;;5.70;;
67715;SDS011;54508;43.238;25.306;2022-09-29T08:53:13;8.88;;;5.30;;
67715;SDS011;54508;43.238;25.306;2022-09-29T08:56:03;12.27;;;4.88;;
67715;SDS011;54508;43.238;25.306;2022-09-29T08:58:38;11.80;;;4.57;;
67715;SDS011;54508;43.238;25.306;2022-09-29T09:09:32;11.95;;;7.32;;
67715;SDS011;54508;43.238;25.306;2022-09-29T09:14:55;14.55;;;8.27;;
67715;SDS011;54508;43.238;25.306;2022-09-29T09:20:40;9.40;;;5.57;;
67715;SDS011;54508;43.238;25.306;2022-09-29T09:26:11;5.25;;;3.85;;
67715;SDS011;54508;43.238;25.306;2022-09-29T09:28:36;7.93;;;4.35;;
67715;SDS011;54508;43.238;25.306;2022-09-29T09:33:43;6.80;;;4.10;;
67715;SDS011;54508;43.238;25.306;2022-09-29T09:36:13;10.48;;;3.70;;
67715;SDS011;54508;43.238;25.306;2022-09-29T09:38:46;7.18;;;3.45;;
67715;SDS011;54508;43.238;25.306;2022-09-29T09:41:18;7.15;;;4.82;;
67715;SDS011;54508;43.238;25.306;2022-09-29T09:43:46;10.43;;;6.85;;
67715;SDS011;54508;43.238;25.306;2022-09-29T09:46:31;8.13;;;5.72;;
67715;SDS011;54508;43.238;25.306;2022-09-29T09:49:40;9.07;;;6.72;;
67715;SDS011;54508;43.238;25.306;2022-09-29T09:54:39;12.18;;;7.47;;
67715;SDS011;54508;43.238;25.306;2022-09-29T10:02:24;15.18;;;9.88;;
67715;SDS011;54508;43.238;25.306;2022-09-29T10:04:50;19.43;;;8.60;;
67715;SDS011;54508;43.238;25.306;2022-09-29T10:07:17;14.88;;;8.57;;
67715;SDS011;54508;43.238;25.306;2022-09-29T10:09:44;14.35;;;9.73;;
67715;SDS011;54508;43.238;25.306;2022-09-29T10:12:20;16.67;;;11.13;;
67715;SDS011;54508;43.238;25.306;2022-09-29T10:15:11;16.73;;;12.25;;
67715;SDS011;54508;43.238;25.306;2022-09-29T10:17:43;15.05;;;11.75;;
67715;SDS011;54508;43.238;25.306;2022-09-29T10:20:10;17.95;;;15.07;;
67715;SDS011;54508;43.238;25.306;2022-09-29T10:22:36;26.87;;;23.20;;
67715;SDS011;54508;43.238;25.306;2022-09-29T10:27:39;23.38;;;16.52;;
67715;SDS011;54508;43.238;25.306;2022-09-29T10:30:19;18.40;;;13.95;;
67715;SDS011;54508;43.238;25.306;2022-09-29T10:32:47;19.95;;;13.82;;
67715;SDS011;54508;43.238;25.306;2022-09-29T10:37:40;16.10;;;12.40;;
67715;SDS011;54508;43.238;25.306;2022-09-29T10:42:38;18.43;;;12.87;;
67715;SDS011;54508;43.238;25.306;2022-09-29T10:48:05;18.37;;;11.40;;
67715;SDS011;54508;43.238;25.306;2022-09-29T10:50:36;14.60;;;11.25;;
67715;SDS011;54508;43.238;25.306;2022-09-29T10:56:02;19.13;;;9.68;;
67715;SDS011;54508;43.238;25.306;2022-09-29T11:03:31;15.48;;;9.20;;
67715;SDS011;54508;43.238;25.306;2022-09-29T11:05:58;14.68;;;9.57;;
67715;SDS011;54508;43.238;25.306;2022-09-29T11:08:27;12.30;;;8.23;;
67715;SDS011;54508;43.238;25.306;2022-09-29T11:14:29;14.43;;;8.18;;
67715;SDS011;54508;43.238;25.306;2022-09-29T11:17:02;26.10;;;11.70;;
67715;SDS011;54508;43.238;25.306;2022-09-29T11:20:00;14.95;;;9.05;;
67715;SDS011;54508;43.238;25.306;2022-09-29T11:30:26;12.27;;;6.90;;
67715;SDS011;54508;43.238;25.306;2022-09-29T11:35:57;10.23;;;6.53;;
67715;SDS011;54508;43.238;25.306;2022-09-29T11:44:06;8.13;;;5.80;;
67715;SDS011;54508;43.238;25.306;2022-09-29T11:54:53;14.63;;;6.75;;
67715;SDS011;54508;43.238;25.306;2022-09-29T12:05:56;10.30;;;5.72;;
67715;SDS011;54508;43.238;25.306;2022-09-29T12:08:38;10.50;;;5.03;;
67715;SDS011;54508;43.238;25.306;2022-09-29T12:14:42;14.23;;;4.93;;
67715;SDS011;54508;43.238;25.306;2022-09-29T12:16:51;11.82;;;5.03;;
67715;SDS011;54508;43.238;25.306;2022-09-29T12:19:22;7.47;;;5.10;;
67715;SDS011;54508;43.238;25.306;2022-09-29T12:21:51;8.23;;;4.35;;
67715;SDS011;54508;43.238;25.306;2022-09-29T12:24:59;9.90;;;4.35;;
67715;SDS011;54508;43.238;25.306;2022-09-29T12:29:43;786.58;;;155.18;;
67715;SDS011;54508;43.238;25.306;2022-09-29T12:32:12;447.35;;;83.30;;
67715;SDS011;54508;43.238;25.306;2022-09-29T12:34:54;315.85;;;55.85;;
67715;SDS011;54508;43.238;25.306;2022-09-29T12:37:26;277.77;;;48.05;;
67715;SDS011;54508;43.238;25.306;2022-09-29T12:47:53;130.10;;;27.38;;
67715;SDS011;54508;43.238;25.306;2022-09-29T12:50:39;125.55;;;23.95;;
67715;SDS011;54508;43.238;25.306;2022-09-29T12:53:23;110.70;;;22.67;;
67715;SDS011;54508;43.238;25.306;2022-09-29T12:56:05;100.78;;;21.48;;
67715;SDS011;54508;43.238;25.306;2022-09-29T12:58:46;82.35;;;18.90;;
67715;SDS011;54508;43.238;25.306;2022-09-29T13:28:28;37.83;;;10.20;;
67715;SDS011;54508;43.238;25.306;2022-09-29T13:31:00;33.08;;;10.43;;
67715;SDS011;54508;43.238;25.306;2022-09-29T13:33:28;34.08;;;9.02;;
67715;SDS011;54508;43.238;25.306;2022-09-29T13:35:53;31.57;;;7.83;;
67715;SDS011;54508;43.238;25.306;2022-09-29T13:38:23;23.67;;;7.50;;
67715;SDS011;54508;43.238;25.306;2022-09-29T13:48:50;21.73;;;7.85;;
67715;SDS011;54508;43.238;25.306;2022-09-29T13:51:21;20.27;;;6.35;;
67715;SDS011;54508;43.238;25.306;2022-09-29T13:53:54;21.30;;;6.75;;
67715;SDS011;54508;43.238;25.306;2022-09-29T13:56:49;21.03;;;6.47;;
67715;SDS011;54508;43.238;25.306;2022-09-29T13:59:36;23.90;;;5.85;;
67715;SDS011;54508;43.238;25.306;2022-09-29T14:02:46;18.33;;;5.85;;
67715;SDS011;54508;43.238;25.306;2022-09-29T14:04:55;15.38;;;5.70;;
67715;SDS011;54508;43.238;25.306;2022-09-29T14:08:05;17.50;;;5.90;;
67715;SDS011;54508;43.238;25.306;2022-09-29T14:15:39;15.82;;;5.97;;
67715;SDS011;54508;43.238;25.306;2022-09-29T14:18:15;18.67;;;6.15;;
67715;SDS011;54508;43.238;25.306;2022-09-29T14:24:39;13.77;;;5.50;;
67715;SDS011;54508;43.238;25.306;2022-09-29T14:29:47;11.90;;;5.25;;
67715;SDS011;54508;43.238;25.306;2022-09-29T14:32:19;12.27;;;4.63;;
67715;SDS011;54508;43.238;25.306;2022-09-29T14:34:51;10.63;;;4.45;;
67715;SDS011;54508;43.238;25.306;2022-09-29T14:37:18;12.47;;;4.30;;
67715;SDS011;54508;43.238;25.306;2022-09-29T14:39:46;14.65;;;4.88;;
67715;SDS011;54508;43.238;25.306;2022-09-29T14:42:32;16.77;;;4.57;;
67715;SDS011;54508;43.238;25.306;2022-09-29T14:44:58;13.55;;;4.95;;
67715;SDS011;54508;43.238;25.306;2022-09-29T15:03:50;14.02;;;5.10;;
67715;SDS011;54508;43.238;25.306;2022-09-29T15:06:17;13.52;;;5.20;;
67715;SDS011;54508;43.238;25.306;2022-09-29T15:09:00;15.70;;;4.78;;
67715;SDS011;54508;43.238;25.306;2022-09-29T15:11:43;15.70;;;4.35;;
67715;SDS011;54508;43.238;25.306;2022-09-29T15:16:47;14.88;;;5.07;;
67715;SDS011;54508;43.238;25.306;2022-09-29T15:27:23;11.77;;;3.67;;
67715;SDS011;54508;43.238;25.306;2022-09-29T15:29:52;7.57;;;4.07;;
67715;SDS011;54508;43.238;25.306;2022-09-29T15:32:23;11.38;;;4.28;;
67715;SDS011;54508;43.238;25.306;2022-09-29T15:34:52;12.82;;;3.97;;
67715;SDS011;54508;43.238;25.306;2022-09-29T15:37:18;11.15;;;4.25;;
67715;SDS011;54508;43.238;25.306;2022-09-29T15:39:48;13.23;;;4.20;;
67715;SDS011;54508;43.238;25.306;2022-09-29T15:42:20;10.65;;;4.55;;
67715;SDS011;54508;43.238;25.306;2022-09-29T15:44:51;10.90;;;4.40;;
67715;SDS011;54508;43.238;25.306;2022-09-29T15:47:34;12.88;;;4.97;;
67715;SDS011;54508;43.238;25.306;2022-09-29T15:50:03;9.32;;;4.28;;
67715;SDS011;54508;43.238;25.306;2022-09-29T15:52:30;9.73;;;4.30;;
67715;SDS011;54508;43.238;25.306;2022-09-29T15:54:56;12.77;;;4.18;;
67715;SDS011;54508;43.238;25.306;2022-09-29T15:57:39;11.73;;;4.57;;
67715;SDS011;54508;43.238;25.306;2022-09-29T16:05:13;12.30;;;4.30;;
67715;SDS011;54508;43.238;25.306;2022-09-29T16:07:56;17.13;;;5.28;;
67715;SDS011;54508;43.238;25.306;2022-09-29T16:10:31;12.57;;;5.07;;
67715;SDS011;54508;43.238;25.306;2022-09-29T16:13:02;12.60;;;5.70;;
67715;SDS011;54508;43.238;25.306;2022-09-29T16:15:42;13.13;;;5.80;;
67715;SDS011;54508;43.238;25.306;2022-09-29T16:18:14;12.98;;;5.18;;
67715;SDS011;54508;43.238;25.306;2022-09-29T16:20:42;15.30;;;5.47;;
67715;SDS011;54508;43.238;25.306;2022-09-29T16:23:19;10.68;;;4.97;;
67715;SDS011;54508;43.238;25.306;2022-09-29T16:26:15;10.95;;;4.78;;
67715;SDS011;54508;43.238;25.306;2022-09-29T16:31:37;13.77;;;4.35;;
67715;SDS011;54508;43.238;25.306;2022-09-29T16:34:07;18.25;;;5.20;;
67715;SDS011;54508;43.238;25.306;2022-09-29T16:36:46;11.68;;;4.68;;
67715;SDS011;54508;43.238;25.306;2022-09-29T16:39:23;9.77;;;4.32;;
67715;SDS011;54508;43.238;25.306;2022-09-29T16:41:54;11.60;;;4.68;;
67715;SDS011;54508;43.238;25.306;2022-09-29T16:44:31;16.30;;;5.13;;
67715;SDS011;54508;43.238;25.306;2022-09-29T16:49:34;14.73;;;5.90;;
67715;SDS011;54508;43.238;25.306;2022-09-29T16:52:01;14.95;;;6.18;;
67715;SDS011;54508;43.238;25.306;2022-09-29T16:54:43;16.60;;;6.22;;
67715;SDS011;54508;43.238;25.306;2022-09-29T16:57:26;12.73;;;5.32;;
67715;SDS011;54508;43.238;25.306;2022-09-29T16:59:55;14.45;;;5.55;;
67715;SDS011;54508;43.238;25.306;2022-09-29T17:02:22;16.35;;;5.70;;
67715;SDS011;54508;43.238;25.306;2022-09-29T17:04:49;17.33;;;5.70;;
67715;SDS011;54508;43.238;25.306;2022-09-29T17:07:16;14.50;;;5.55;;
67715;SDS011;54508;43.238;25.306;2022-09-29T17:09:43;14.90;;;5.40;;
67715;SDS011;54508;43.238;25.306;2022-09-29T17:12:11;15.02;;;5.72;;
67715;SDS011;54508;43.238;25.306;2022-09-29T17:14:37;12.18;;;5.28;;
67715;SDS011;54508;43.238;25.306;2022-09-29T17:17:03;9.63;;;4.73;;
67715;SDS011;54508;43.238;25.306;2022-09-29T17:19:28;16.30;;;5.90;;
67715;SDS011;54508;43.238;25.306;2022-09-29T17:21:54;13.10;;;5.28;;
67715;SDS011;54508;43.238;25.306;2022-09-29T17:24:20;14.52;;;6.13;;
67715;SDS011;54508;43.238;25.306;2022-09-29T17:26:45;15.80;;;6.32;;
67715;SDS011;54508;43.238;25.306;2022-09-29T17:29:30;15.52;;;5.85;;
67715;SDS011;54508;43.238;25.306;2022-09-29T17:31:55;14.45;;;6.15;;
67715;SDS011;54508;43.238;25.306;2022-09-29T17:34:21;20.00;;;6.73;;
67715;SDS011;54508;43.238;25.306;2022-09-29T17:36:50;12.55;;;5.82;;
67715;SDS011;54508;43.238;25.306;2022-09-29T17:39:16;15.77;;;5.78;;
67715;SDS011;54508;43.238;25.306;2022-09-29T17:41:42;14.27;;;5.83;;
67715;SDS011;54508;43.238;25.306;2022-09-29T17:44:07;12.63;;;6.10;;
67715;SDS011;54508;43.238;25.306;2022-09-29T17:46:33;13.00;;;5.65;;
67715;SDS011;54508;43.238;25.306;2022-09-29T17:49:00;11.98;;;5.47;;
67715;SDS011;54508;43.238;25.306;2022-09-29T17:51:26;17.10;;;5.70;;
67715;SDS011;54508;43.238;25.306;2022-09-29T17:53:52;11.60;;;4.93;;
67715;SDS011;54508;43.238;25.306;2022-09-29T17:56:24;13.87;;;5.67;;
67715;SDS011;54508;43.238;25.306;2022-09-29T17:58:50;14.75;;;5.88;;
67715;SDS011;54508;43.238;25.306;2022-09-29T18:01:17;20.03;;;6.10;;
67715;SDS011;54508;43.238;25.306;2022-09-29T18:03:45;17.52;;;6.18;;
67715;SDS011;54508;43.238;25.306;2022-09-29T18:06:18;16.38;;;6.45;;
67715;SDS011;54508;43.238;25.306;2022-09-29T18:08:46;18.65;;;6.80;;
67715;SDS011;54508;43.238;25.306;2022-09-29T18:11:14;19.70;;;6.90;;
67715;SDS011;54508;43.238;25.306;2022-09-29T18:13:41;16.13;;;5.97;;
67715;SDS011;54508;43.238;25.306;2022-09-29T18:16:08;16.55;;;5.90;;
67715;SDS011;54508;43.238;25.306;2022-09-29T18:18:35;14.87;;;5.37;;